• Join FlightAware (Why Join?)
  • Login
  • US Flag 
06:32PM EDT


 

Airport Tracker/Info


-or-


 

Live Flight TrackerFlight Track Log ✈ N877PM ✈ 06-Oct-2013 ✈ KGSO - KPWK

Flight Track Log - Related Links

Times and Time Zones

All times are in EDT time to prevent confusion due to time zone crossing. See the N877PM flight status page for this flight to view local times or setup timezone preferences in your user account.

Time Position Orientation Groundspeed Altitude Reporting Facility
EDT Latitude Longitude Course Direction KTS MPH feet Rate Location/Type
07:39PM 36.1306 -80.1003 313° West 194 223 8,200  Level Atlanta Center
07:40PM 36.1592 -80.1478 307° West 183 211 10,300 1,860 Climbing Atlanta Center
07:41PM 36.1942 -80.1950 313° West 175 201 12,000 1,620 Climbing Atlanta Center
07:42PM 36.2247 -80.2372 312° West 180 207 13,600 1,500 Climbing Atlanta Center
07:43PM 36.4501 -80.3508 313° West  Level Estimated
07:43PM 36.2636 -80.2844 316° Northwest 185 213 15,000  Level Atlanta Center
07:44PM 36.3069 -80.3339 317° Northwest 197 227 16,300 1,440 Climbing Atlanta Center
07:45PM 36.3481 -80.3836 316° Northwest 202 232 17,900 1,500 Climbing Atlanta Center
07:46PM 36.3956 -80.4381 317° Northwest 202 232 19,400 1,320 Climbing Atlanta Center
07:47PM 36.4386 -80.4903 316° Northwest 208 239 20,600 1,200 Climbing Atlanta Center
07:48PM 36.4819 -80.5400 317° Northwest 208 239 21,900 1,140 Climbing Atlanta Center
07:49PM 36.5250 -80.5872 319° Northwest 220 253 22,900 1,140 Climbing Atlanta Center
07:50PM 36.5722 -80.6422 317° Northwest 225 259 24,200 1,320 Climbing Atlanta Center
07:51PM 36.6217 -80.6969 318° Northwest 225 259 25,600 1,320 Climbing Atlanta Center
07:52PM 36.6669 -80.7519 316° Northwest 225 259 26,900 1,320 Climbing Atlanta Center
07:53PM 36.7208 -80.8144 317° Northwest 232 267 28,300 1,080 Climbing Atlanta Center
07:54PM 36.7703 -80.8772 315° West 238 274 29,100 1,020 Climbing Atlanta Center
07:55PM 36.8242 -80.9400 317° Northwest 249 287 30,400 1,200 Climbing Atlanta Center
07:56PM 36.8736 -81.0003 316° Northwest 256 295 31,600 1,140 Climbing Atlanta Center
07:57PM 36.9231 -81.0606 316° Northwest 256 295 32,700 900 Climbing Atlanta Center
07:59PM 37.0244 -81.1706 319° Northwest 248 285 34,300 780 Climbing Indianapolis Center
08:00PM 37.0722 -81.2258 317° Northwest 252 290 35,000 720 Climbing Indianapolis Center
08:01PM 37.1225 -81.2861 316° Northwest 250 288 35,800 480 Climbing Indianapolis Center
08:02PM 37.1736 -81.3478 316° Northwest 255 293 36,000 60 Climbing Indianapolis Center
08:03PM 37.2417 -81.4286 317° Northwest 287 330 36,000  Level Indianapolis Center
08:04PM 37.3008 -81.5008 316° Northwest 301 346 36,000  Level Indianapolis Center
08:05PM 37.3683 -81.5808 317° Northwest 317 365 36,000  Level Indianapolis Center
08:06PM 37.4358 -81.6608 317° Northwest 328 377 36,000  Level Indianapolis Center
08:07PM 37.5042 -81.7389 318° Northwest 331 381 36,000  Level Indianapolis Center
08:08PM 37.5869 -81.8047 328° Northwest 349 402 36,000  Level Indianapolis Center
08:09PM 37.6839 -81.8822 328° Northwest 353 406 36,000  Level Indianapolis Center
08:10PM 37.7658 -81.9497 327° Northwest 353 406 36,000  Level Indianapolis Center
08:11PM 37.8378 -82.0058 328° Northwest 357 411 36,000  Level Indianapolis Center
08:12PM 37.9414 -82.0861 329° Northwest 360 414 36,000  Level Indianapolis Center
08:13PM 38.0358 -82.1400 336° Northwest 369 425 36,000  Level Indianapolis Center
08:14PM 38.1308 -82.1917 337° Northwest 370 426 36,000  Level Indianapolis Center
08:15PM 38.2272 -82.2439 337° Northwest 375 432 36,000  Level Indianapolis Center
08:16PM 38.3231 -82.2939 338° Northwest 372 428 36,000  Level Indianapolis Center
08:17PM 38.4194 -82.3439 338° Northwest 372 428 36,000  Level Indianapolis Center
08:18PM 38.5142 -82.3961 337° Northwest 370 426 36,000  Level Indianapolis Center
08:19PM 38.6083 -82.4494 336° Northwest 367 422 36,000  Level Indianapolis Center
08:20PM 38.6903 -82.5231 325° Northwest 360 414 36,000  Level Indianapolis Center
08:21PM 38.7717 -82.5972 325° Northwest 359 413 36,000  Level Indianapolis Center
08:22PM 38.8719 -82.6856 326° Northwest 362 417 36,000  Level Indianapolis Center
08:24PM 38.9558 -82.7606 325° Northwest 366 421 36,000  Level Indianapolis Center
08:25PM 39.0394 -82.8353 325° Northwest 365 420 36,000  Level Indianapolis Center
08:26PM 39.1236 -82.9111 325° Northwest 367 422 36,000  Level Indianapolis Center
08:27PM 39.2156 -82.9925 326° Northwest 374 430 36,000  Level Indianapolis Center
08:28PM 39.3000 -83.0689 325° Northwest 372 428 36,000  Level Indianapolis Center
08:29PM 39.3853 -83.1453 325° Northwest 373 429 36,000  Level Indianapolis Center
08:30PM 39.4697 -83.2236 324° Northwest 375 432 36,000  Level Indianapolis Center
08:31PM 39.5556 -83.3014 325° Northwest 376 433 36,000  Level Indianapolis Center
08:32PM 39.6553 -83.3903 326° Northwest 377 434 36,000  Level Indianapolis Center
08:33PM 39.7264 -83.4586 324° Northwest 375 432 36,000  Level Indianapolis Center
08:34PM 39.8272 -83.5481 326° Northwest 381 438 36,000  Level Indianapolis Center
08:35PM 39.9119 -83.6283 324° Northwest 378 435 36,000  Level Indianapolis Center
08:36PM 39.9986 -83.7081 325° Northwest 382 440 36,000  Level Indianapolis Center
08:37PM 40.0928 -83.8064 321° Northwest 377 434 36,000  Level Indianapolis Center
08:38PM 40.1675 -83.9014 316° Northwest 374 430 36,000  Level Indianapolis Center
08:39PM 40.2425 -83.9950 316° Northwest 372 428 36,000  Level Indianapolis Center
08:40PM 40.3181 -84.0911 316° Northwest 377 434 36,000  Level Indianapolis Center
08:41PM 40.4100 -84.1697 327° Northwest 392 451 36,000  Level Indianapolis Center
08:42PM 40.5022 -84.2489 327° Northwest 396 456 36,000  Level Indianapolis Center
08:43PM 40.5914 -84.3325 325° Northwest 394 453 36,000  Level Indianapolis Center
08:44PM 40.7008 -84.4311 326° Northwest 397 457 36,000  Level Indianapolis Center
08:45PM 40.7911 -84.5144 325° Northwest 396 456 36,000  Level Indianapolis Center
08:46PM 40.8806 -84.5961 325° Northwest 393 452 36,000  Level Indianapolis Center
08:47PM 40.9703 -84.6792 325° Northwest 395 455 36,000 -60 Level Indianapolis Center
08:48PM 41.0603 -84.7633 325° Northwest 396 456 35,900 -600 Descending Indianapolis Center
08:49PM 41.1514 -84.8472 325° Northwest 399 459 34,800 -1,260 Descending Indianapolis Center
08:50PM 41.2556 -84.9428 325° Northwest 410 472 33,300 -1,380 Descending Cleveland Center
08:51PM 41.3503 -85.0333 324° Northwest 418 481 32,000 -1,260 Descending Cleveland Center
08:52PM 41.4456 -85.1217 325° Northwest 419 482 30,800 -1,260 Descending Cleveland Center
08:53PM 41.5600 -85.2289 325° Northwest 422 486 29,400 -1,260 Descending Cleveland Center
08:54PM 41.6419 -85.3075 324° Northwest 419 482 28,300 -1,260 Descending Cleveland Center
08:55PM 41.7506 -85.4092 325° Northwest 414 476 26,900 -1,260 Descending Cleveland Center
08:56PM 41.8344 -85.4894 325° Northwest 413 475 25,800 -1,380 Descending Cleveland Center
08:57PM 41.9386 -85.5942 323° Northwest 394 453 24,100 -900 Descending Cleveland Center
08:59PM 42.0317 -85.6797 326° Northwest 404 465 24,000 -60 Descending Cleveland Center
09:00PM 42.1242 -85.7683 325° Northwest 409 471 24,000  Level Cleveland Center
09:01PM 42.2175 -85.8597 324° Northwest 415 478 24,000 -180 Level Cleveland Center
09:02PM 42.3111 -85.9503 324° Northwest 415 478 23,700 -840 Descending Cleveland Center
09:03PM 42.4214 -86.0581 324° Northwest 434 499 22,400 -1,200 Descending Cleveland Center
09:04PM 42.4594 -86.2411 286° West 356 410 20,800 -1,500 Descending Chicago Center
09:05PM 42.4522 -86.3628 265° West 326 375 18,800 -2,040 Descending Chicago Center
09:06PM 42.4458 -86.4822 266° West 318 366 16,600 -2,100 Descending Chicago Center
09:07PM 42.4392 -86.5981 266° West 310 357 14,500 -1,680 Descending Chicago Center
09:08PM 42.4356 -86.7058 267° West 292 336 13,100 -1,800 Descending Chicago Center
09:09PM 42.4283 -86.8031 264° West 267 307 10,900 -2,580 Descending Chicago Center
09:10PM 42.4225 -86.9214 266° West 265 305 7,900 -2,460 Descending Chicago Center
09:11PM 42.4175 -87.0181 266° West 260 299 5,900 -2,040 Descending Chicago Center
09:12PM 42.4100 -87.1025 263° West 232 267 3,800 -1,380 Descending Chicago Center
09:13PM 42.4061 -87.1850 266° West 227 261 3,100 -360 Descending Chicago Center
09:14PM 42.3978 -87.2683 262° West 224 258 3,100  Level Chicago Center
09:15PM 42.3822 -87.3506 256° West 227 261 3,100  Level Chicago Center
09:16PM 42.3653 -87.4381 255° West 228 262 3,100  Level Chicago Center
09:17PM 42.3467 -87.5369 256° West 229 264 3,100 -60 Level Chicago Center
09:18PM 42.3300 -87.6203 255° West 230 265 3,000  Descending Chicago Center
09:20PM 42.3128 -87.7019 254° West 230 265 3,100 -60 Climbing Chicago Center
09:21PM 42.2978 -87.7817 256° West 226 260 2,900 -360 Descending Chicago Center
09:22PM 42.2842 -87.8558 256° West 219 252 2,400 -240 Descending Chicago Center
09:23PM 42.2622 -87.9183 245° Southwest 184 212 2,500  Climbing Chicago Center
09:24PM 42.2383 -87.9581 231° Southwest 165 190 2,500 -240 Level Chicago Center
09:25PM 42.1997 -87.9428 164° South 152 175 2,100 -360 Descending Chicago Center
09:26PM 42.1672 -87.9350 170° South 146 168 1,800 -300 Descending Chicago Center
09:28PM 42.1143 -87.9015 169° South  Level Estimated
09:35PM 42.1143 -87.9015 169° South  Level Estimated